Terminal Aerodrome Forecast
Issued by NWS Chicago, IL

Home | Current Version | Previous Version | Text Only | Print | Product List | Glossary Off
Versions: 1 2 3 4 5 6 7 8 9 10 11 12 13 14 15 16 17 18 19 20 21 22 23 24 25

376
FTUS43 KLOT 231507 AAA
TAFRFD
TAF AMD
KRFD 231507Z 2315/2412 18009KT P6SM SCT250
     FM231800 18012KT P6SM SKC
     FM240100 16007KT P6SM SCT250
     FM241000 19007KT P6SM SCT040 BKN200 PROB30 2411/2412 4SM TSRA
      OVC040CB=

USA.gov is the U.S. government's official web portal to all federal, state and local government web resources and services.